Terminal Aerodrome Forecast
Issued by NWS

Current Version | Previous Version | Graphics & Text | Print | Product List | Glossary On
Versions: 1 2 3 4 5 6 7 8 9 10 11 12 13 14 15 16 17 18 19 20 21 22 23 24 25 26 27 28 29
000
FTUS41 KILN 271120
TAFLUK
TAF
KLUK 271120Z 2712/2812 VRB03KT 5SM BR SCT040 OVC100
      TEMPO 2712/2713 2SM BR SCT015 OVC030
     FM271400 VRB03KT P6SM VCSH SCT012 BKN050
      TEMPO 2718/2722 5SM -RA BKN030 OVC040
     FM272200 05004KT 5SM BR VCSH BKN040
     FM280100 09004KT 5SM BR FEW030 BKN100
      TEMPO 2803/2806 2SM BR SKC=

USA.gov is the U.S. government's official web portal to all federal, state and local government web resources and services.